Time;durP1;ratioP1;P1;durP2;ratioP2;P2;SDS_P1;SDS_P2;PMS_P1;PMS_P2;Temp;Humidity;BMP_temperature;BMP_pressure;BME280_temperature;BME280_humidity;BME280_pressure;Samples;Min_cycle;Max_cycle;Signal;HPM_P1;HPM_P2
2022/12/29 00:00:01;;;;;;;17.30;10.10;;;;;;;;;;5156052;27;20029;-76
2022/12/29 00:02:26;;;;;;;17.17;10.70;;;;;;;;;;5155760;27;20027;-74
2022/12/29 00:04:52;;;;;;;17.63;10.77;;;;;;;;;;5155782;27;20026;-74
2022/12/29 00:07:18;;;;;;;21.65;10.20;;;;;;;;;;5155549;27;20715;-73
2022/12/29 00:09:43;;;;;;;17.33;10.18;;;;;;;;;;5155534;27;20083;-76
2022/12/29 00:12:09;;;;;;;18.00;10.60;;;;;;;;;;5155265;27;20027;-76
2022/12/29 00:17:18;;;;;;;18.48;10.55;;;;;;;;;;5155663;27;20049;-72
2022/12/29 00:36:28;;;;;;;17.40;9.32;;;;;;;;;;5155561;27;20049;-77
2022/12/29 00:44:27;;;;;;;13.65;8.43;;;;;;;;;;5154761;27;20131;-75
2022/12/29 00:46:52;;;;;;;15.23;8.80;;;;;;;;;;5154888;27;20035;-74
2022/12/29 00:49:32;;;;;;;13.52;7.85;;;;;;;;;;5154802;27;20022;-76
2022/12/29 00:52:12;;;;;;;15.43;8.70;;;;;;;;;;5154949;27;20016;-75
2022/12/29 00:54:40;;;;;;;15.68;8.85;;;;;;;;;;5154909;27;20027;-76
2022/12/29 00:57:07;;;;;;;15.05;8.77;;;;;;;;;;5155161;27;20014;-73
2022/12/29 00:59:38;;;;;;;13.75;8.70;;;;;;;;;;5154345;27;20515;-68
2022/12/29 01:02:05;;;;;;;14.63;8.60;;;;;;;;;;5154512;27;20110;-68
2022/12/29 01:04:30;;;;;;;14.63;8.45;;;;;;;;;;5154518;27;20023;-67
2022/12/29 01:06:55;;;;;;;17.05;9.10;;;;;;;;;;5154568;27;20375;-70
2022/12/29 01:12:06;;;;;;;15.32;8.57;;;;;;;;;;5154744;27;20134;-68
2022/12/29 01:14:32;;;;;;;15.00;8.98;;;;;;;;;;5154434;27;20114;-75
2022/12/29 01:16:58;;;;;;;16.65;8.95;;;;;;;;;;5154451;27;20059;-74
2022/12/29 01:19:25;;;;;;;14.65;8.45;;;;;;;;;;5154051;27;20037;-75
2022/12/29 01:21:50;;;;;;;16.67;8.98;;;;;;;;;;5154386;27;20652;-74
2022/12/29 01:24:17;;;;;;;16.48;8.55;;;;;;;;;;5154098;27;20019;-73
2022/12/29 01:26:43;;;;;;;17.55;8.50;;;;;;;;;;5152832;27;20083;-76
2022/12/29 01:29:09;;;;;;;19.65;9.05;;;;;;;;;;5153048;27;20052;-73
2022/12/29 01:31:35;;;;;;;15.45;8.95;;;;;;;;;;5154213;27;20366;-72
2022/12/29 01:34:00;;;;;;;16.48;8.90;;;;;;;;;;5153691;27;20022;-77
2022/12/29 01:36:26;;;;;;;16.15;8.60;;;;;;;;;;5154016;27;20023;-76
2022/12/29 01:38:51;;;;;;;16.17;8.77;;;;;;;;;;5153857;27;20019;-75
2022/12/29 01:41:17;;;;;;;18.98;8.68;;;;;;;;;;5153928;27;20098;-76
2022/12/29 01:43:51;;;;;;;15.30;8.52;;;;;;;;;;5153565;27;20043;-77
2022/12/29 01:46:41;;;;;;;16.52;7.90;;;;;;;;;;5153877;27;20041;-75
2022/12/29 01:49:15;;;;;;;18.17;8.70;;;;;;;;;;5153726;27;20036;-76
2022/12/29 01:51:53;;;;;;;14.07;8.57;;;;;;;;;;5153803;27;20149;-75
2022/12/29 01:54:38;;;;;;;15.25;8.25;;;;;;;;;;5153476;27;20027;-68
2022/12/29 01:57:09;;;;;;;15.38;8.60;;;;;;;;;;5153430;27;20019;-67
2022/12/29 01:59:42;;;;;;;15.77;7.97;;;;;;;;;;5153600;27;20423;-68
2022/12/29 02:02:08;;;;;;;15.63;8.30;;;;;;;;;;5153713;27;20034;-67
2022/12/29 02:04:34;;;;;;;13.75;7.95;;;;;;;;;;5153292;27;20030;-68
2022/12/29 02:07:04;;;;;;;17.13;8.52;;;;;;;;;;5153467;27;20474;-68
2022/12/29 02:09:30;;;;;;;16.83;8.20;;;;;;;;;;5153324;27;20026;-68
2022/12/29 02:11:57;;;;;;;16.23;8.00;;;;;;;;;;5152543;27;20046;-68
2022/12/29 02:14:23;;;;;;;18.52;8.18;;;;;;;;;;5152968;27;20026;-67
2022/12/29 02:17:08;;;;;;;13.32;7.75;;;;;;;;;;5153311;27;20075;-75
2022/12/29 02:19:58;;;;;;;17.15;8.10;;;;;;;;;;5153275;27;20385;-75
2022/12/29 02:22:51;;;;;;;16.58;7.65;;;;;;;;;;5153106;27;20023;-75
2022/12/29 02:25:28;;;;;;;13.07;7.57;;;;;;;;;;5153373;27;20113;-76
2022/12/29 02:27:53;;;;;;;17.40;7.28;;;;;;;;;;5153026;27;20031;-68
2022/12/29 02:30:36;;;;;;;18.88;7.78;;;;;;;;;;5153221;27;20027;-74
2022/12/29 02:33:33;;;;;;;13.88;7.60;;;;;;;;;;5152640;27;20486;-75
2022/12/29 02:36:10;;;;;;;20.02;8.00;;;;;;;;;;5152969;27;20023;-76
2022/12/29 02:38:41;;;;;;;14.35;7.57;;;;;;;;;;5152935;27;20497;-70
2022/12/29 02:41:19;;;;;;;13.60;7.07;;;;;;;;;;5152889;27;20018;-75
2022/12/29 02:44:00;;;;;;;13.63;7.47;;;;;;;;;;5152427;27;20042;-74
2022/12/29 02:46:36;;;;;;;14.20;7.53;;;;;;;;;;5151371;27;20026;-72
2022/12/29 02:49:19;;;;;;;13.52;7.15;;;;;;;;;;5152303;27;20062;-76
2022/12/29 02:52:06;;;;;;;12.10;7.25;;;;;;;;;;5152621;27;20077;-73
2022/12/29 02:54:50;;;;;;;17.25;7.70;;;;;;;;;;5152431;27;20486;-75
2022/12/29 02:57:21;;;;;;;12.75;7.35;;;;;;;;;;5152643;27;20022;-74
2022/12/29 02:59:51;;;;;;;14.75;7.70;;;;;;;;;;5152406;27;20027;-74
2022/12/29 03:02:44;;;;;;;13.95;7.60;;;;;;;;;;5152465;27;20435;-75
2022/12/29 03:05:28;;;;;;;14.50;7.18;;;;;;;;;;5152428;27;20050;-76
2022/12/29 03:08:14;;;;;;;11.40;7.30;;;;;;;;;;5152058;27;20033;-73
2022/12/29 03:11:02;;;;;;;13.05;7.35;;;;;;;;;;5150996;27;20453;-73
2022/12/29 03:16:45;;;;;;;15.02;7.53;;;;;;;;;;5152640;27;20557;-68
2022/12/29 03:19:31;;;;;;;15.23;7.72;;;;;;;;;;5152200;27;20812;-75
2022/12/29 03:24:49;;;;;;;19.77;8.32;;;;;;;;;;5152165;27;20583;-76
2022/12/29 03:27:19;;;;;;;17.20;8.32;;;;;;;;;;5152001;27;20581;-75
2022/12/29 03:29:56;;;;;;;19.92;8.93;;;;;;;;;;5152282;27;20019;-68
2022/12/29 03:32:31;;;;;;;17.48;8.43;;;;;;;;;;5152055;27;20019;-75
2022/12/29 03:34:58;;;;;;;17.63;9.10;;;;;;;;;;5151731;27;20050;-73
2022/12/29 03:37:31;;;;;;;19.77;8.90;;;;;;;;;;5152105;27;20035;-69
2022/12/29 03:39:56;;;;;;;18.08;8.88;;;;;;;;;;5151920;27;20022;-69
2022/12/29 03:42:27;;;;;;;15.20;8.40;;;;;;;;;;5151946;27;20614;-70
2022/12/29 03:44:56;;;;;;;18.02;8.57;;;;;;;;;;5151577;27;20042;-69
2022/12/29 03:47:23;;;;;;;17.75;8.00;;;;;;;;;;5151805;27;20034;-68
2022/12/29 03:49:48;;;;;;;20.80;8.85;;;;;;;;;;5151926;27;20038;-68
2022/12/29 03:52:14;;;;;;;21.60;8.88;;;;;;;;;;5151928;27;20199;-68
2022/12/29 03:54:39;;;;;;;22.38;8.85;;;;;;;;;;5151638;27;20114;-69
2022/12/29 03:57:05;;;;;;;17.63;7.90;;;;;;;;;;5151720;27;20513;-69
2022/12/29 03:59:30;;;;;;;21.17;8.68;;;;;;;;;;5151645;27;20502;-69
2022/12/29 04:01:56;;;;;;;15.38;7.18;;;;;;;;;;5151668;27;20007;-67
2022/12/29 04:04:21;;;;;;;18.65;8.38;;;;;;;;;;5151485;27;20031;-70
2022/12/29 04:06:47;;;;;;;16.35;7.90;;;;;;;;;;5151988;27;20546;-70
2022/12/29 04:09:12;;;;;;;17.92;7.50;;;;;;;;;;5151722;27;20382;-76
2022/12/29 04:11:37;;;;;;;15.45;7.13;;;;;;;;;;5151623;27;20075;-69
2022/12/29 04:14:03;;;;;;;20.60;7.30;;;;;;;;;;5151288;27;20489;-70
2022/12/29 04:16:28;;;;;;;18.38;7.82;;;;;;;;;;5154202;27;20108;-68
2022/12/29 04:18:53;;;;;;;15.85;7.30;;;;;;;;;;5154632;27;20090;-68
2022/12/29 04:21:19;;;;;;;18.70;7.43;;;;;;;;;;5152095;27;20029;-69
2022/12/29 04:23:44;;;;;;;14.95;7.65;;;;;;;;;;5150168;27;20029;-74
2022/12/29 04:26:10;;;;;;;14.63;7.65;;;;;;;;;;5151802;27;20046;-74
2022/12/29 04:28:36;;;;;;;19.58;7.90;;;;;;;;;;5151570;27;20023;-71
2022/12/29 04:31:03;;;;;;;18.05;7.90;;;;;;;;;;5151518;27;20034;-70
2022/12/29 04:33:29;;;;;;;16.08;7.43;;;;;;;;;;5151159;27;20022;-72
2022/12/29 04:35:55;;;;;;;18.15;7.63;;;;;;;;;;5154059;27;20075;-77
2022/12/29 04:38:22;;;;;;;14.23;7.20;;;;;;;;;;5155231;27;20045;-76
2022/12/29 04:40:47;;;;;;;13.57;7.18;;;;;;;;;;5155314;27;20049;-76
2022/12/29 04:43:13;;;;;;;15.70;7.22;;;;;;;;;;5155104;27;20529;-76
2022/12/29 04:45:43;;;;;;;13.52;6.80;;;;;;;;;;5154838;27;20034;-73
2022/12/29 04:48:08;;;;;;;18.55;7.50;;;;;;;;;;5154942;27;20031;-76
2022/12/29 04:50:33;;;;;;;16.48;6.80;;;;;;;;;;5154921;27;20026;-74
2022/12/29 04:52:59;;;;;;;16.58;6.88;;;;;;;;;;5154932;27;20015;-75
2022/12/29 04:55:24;;;;;;;17.65;6.75;;;;;;;;;;5154648;27;20501;-76
2022/12/29 04:57:49;;;;;;;12.77;6.97;;;;;;;;;;5154906;27;20048;-72
2022/12/29 05:00:15;;;;;;;16.08;7.00;;;;;;;;;;5154755;27;20027;-75
2022/12/29 05:02:40;;;;;;;16.08;7.00;;;;;;;;;;5154818;27;20109;-75
2022/12/29 05:05:06;;;;;;;16.75;6.82;;;;;;;;;;5154268;27;20021;-75
2022/12/29 05:07:33;;;;;;;15.27;6.38;;;;;;;;;;5154587;27;20045;-75
2022/12/29 05:09:59;;;;;;;14.52;6.72;;;;;;;;;;5156858;27;20098;-77
2022/12/29 05:12:24;;;;;;;13.45;6.15;;;;;;;;;;5161469;27;20031;-76
2022/12/29 05:14:49;;;;;;;14.90;6.60;;;;;;;;;;5165488;27;20074;-76
2022/12/29 05:17:15;;;;;;;14.75;6.80;;;;;;;;;;5157092;27;20114;-73
2022/12/29 05:19:40;;;;;;;15.52;6.50;;;;;;;;;;5154704;27;20022;-75
2022/12/29 05:22:06;;;;;;;14.68;6.80;;;;;;;;;;5154516;27;20435;-73
2022/12/29 05:24:31;;;;;;;15.82;6.60;;;;;;;;;;5154055;27;20027;-75
2022/12/29 05:26:56;;;;;;;12.98;6.70;;;;;;;;;;5154036;27;20031;-75
2022/12/29 05:29:22;;;;;;;15.48;7.00;;;;;;;;;;5154041;27;20547;-76
2022/12/29 05:31:47;;;;;;;14.50;6.95;;;;;;;;;;5154099;27;20015;-76
2022/12/29 05:34:13;;;;;;;18.85;6.80;;;;;;;;;;5153850;27;20107;-75
2022/12/29 05:36:39;;;;;;;13.68;7.05;;;;;;;;;;5154187;27;20027;-76
2022/12/29 05:39:07;;;;;;;12.40;7.07;;;;;;;;;;5154222;27;20050;-72
2022/12/29 05:41:32;;;;;;;13.82;7.10;;;;;;;;;;5153954;27;20022;-74
2022/12/29 05:43:58;;;;;;;13.75;7.25;;;;;;;;;;5153457;27;20050;-76
2022/12/29 05:46:23;;;;;;;14.13;7.00;;;;;;;;;;5152550;27;20148;-76
2022/12/29 05:48:48;;;;;;;14.18;7.57;;;;;;;;;;5153641;27;20029;-74
2022/12/29 05:51:14;;;;;;;16.95;7.20;;;;;;;;;;5153879;27;20135;-74
2022/12/29 05:53:39;;;;;;;22.20;7.40;;;;;;;;;;5153784;27;20027;-72
2022/12/29 05:56:05;;;;;;;18.73;7.82;;;;;;;;;;5153584;27;20030;-70
2022/12/29 05:58:30;;;;;;;20.63;7.80;;;;;;;;;;5153575;27;20069;-75
2022/12/29 06:00:56;;;;;;;17.17;7.80;;;;;;;;;;5153608;27;20393;-74
2022/12/29 06:03:21;;;;;;;17.27;8.05;;;;;;;;;;5153217;27;20030;-74
2022/12/29 06:05:46;;;;;;;16.02;7.72;;;;;;;;;;5153134;27;20030;-76
2022/12/29 06:08:12;;;;;;;20.73;7.35;;;;;;;;;;5153384;27;20034;-75
2022/12/29 06:10:38;;;;;;;19.67;8.50;;;;;;;;;;5153623;27;20029;-76
2022/12/29 06:13:05;;;;;;;19.30;7.75;;;;;;;;;;5153509;27;20371;-73
2022/12/29 06:15:33;;;;;;;18.05;8.00;;;;;;;;;;5152963;27;20022;-68
2022/12/29 06:17:59;;;;;;;21.45;8.07;;;;;;;;;;5152995;27;20478;-68
2022/12/29 06:20:24;;;;;;;17.02;8.18;;;;;;;;;;5152977;27;20023;-68
2022/12/29 06:22:50;;;;;;;16.35;7.72;;;;;;;;;;5151760;27;20023;-70
2022/12/29 06:25:15;;;;;;;16.73;7.82;;;;;;;;;;5152920;27;20023;-70
2022/12/29 06:27:41;;;;;;;15.40;7.38;;;;;;;;;;5153041;27;20490;-68
2022/12/29 06:30:08;;;;;;;19.35;7.95;;;;;;;;;;5153051;27;20034;-68
2022/12/29 06:32:35;;;;;;;17.77;8.00;;;;;;;;;;5152958;27;20019;-68
2022/12/29 06:35:01;;;;;;;16.35;7.70;;;;;;;;;;5152390;27;20022;-68
2022/12/29 06:37:26;;;;;;;20.40;8.23;;;;;;;;;;5152815;27;20356;-68
2022/12/29 06:39:51;;;;;;;21.17;7.68;;;;;;;;;;5151475;27;20424;-69
2022/12/29 06:42:17;;;;;;;14.73;7.97;;;;;;;;;;5152671;27;20431;-70
2022/12/29 06:44:42;;;;;;;16.88;8.18;;;;;;;;;;5152359;27;20110;-68
2022/12/29 06:47:08;;;;;;;17.15;7.95;;;;;;;;;;5152601;27;20466;-69
2022/12/29 06:49:33;;;;;;;17.23;8.45;;;;;;;;;;5152761;27;20502;-69
2022/12/29 06:52:00;;;;;;;15.75;7.75;;;;;;;;;;5152619;27;20034;-68
2022/12/29 06:54:26;;;;;;;20.00;7.85;;;;;;;;;;5152322;27;20046;-69
2022/12/29 06:56:51;;;;;;;20.83;7.68;;;;;;;;;;5152398;27;20031;-69
2022/12/29 06:59:17;;;;;;;18.10;8.07;;;;;;;;;;5152178;27;20037;-69
2022/12/29 07:01:42;;;;;;;16.17;7.85;;;;;;;;;;5152496;27;20078;-70
2022/12/29 07:04:08;;;;;;;17.98;8.02;;;;;;;;;;5152241;27;20652;-71
2022/12/29 07:06:33;;;;;;;17.73;7.78;;;;;;;;;;5152340;27;20058;-68
2022/12/29 07:08:58;;;;;;;17.27;7.90;;;;;;;;;;5152265;27;20026;-70
2022/12/29 07:11:24;;;;;;;16.38;7.55;;;;;;;;;;5152026;27;20022;-69
2022/12/29 07:13:50;;;;;;;18.17;8.13;;;;;;;;;;5152228;27;20023;-69
2022/12/29 07:16:15;;;;;;;19.30;7.88;;;;;;;;;;5152034;27;20023;-68
2022/12/29 07:18:41;;;;;;;16.58;7.75;;;;;;;;;;5152173;27;20101;-68
2022/12/29 07:21:07;;;;;;;19.77;7.60;;;;;;;;;;5152218;27;20080;-72
2022/12/29 07:23:32;;;;;;;20.95;8.40;;;;;;;;;;5152391;27;20033;-70
2022/12/29 07:26:11;;;;;;;20.17;7.90;;;;;;;;;;5151808;27;20014;-68
2022/12/29 07:28:37;;;;;;;18.42;7.95;;;;;;;;;;5151908;27;20058;-70
2022/12/29 07:31:03;;;;;;;18.40;7.80;;;;;;;;;;5152015;27;20474;-68
2022/12/29 07:33:29;;;;;;;20.25;7.68;;;;;;;;;;5151839;27;20029;-69
2022/12/29 07:35:54;;;;;;;21.40;8.23;;;;;;;;;;5151940;27;20026;-67
2022/12/29 07:38:20;;;;;;;17.65;7.97;;;;;;;;;;5152179;27;20030;-70
2022/12/29 07:40:45;;;;;;;20.08;8.30;;;;;;;;;;5151988;27;20031;-68
2022/12/29 07:43:10;;;;;;;23.55;8.30;;;;;;;;;;5152126;27;20110;-74
2022/12/29 07:45:36;;;;;;;20.05;8.18;;;;;;;;;;5150304;27;20486;-71
2022/12/29 07:48:02;;;;;;;21.40;8.10;;;;;;;;;;5151710;27;20092;-75
2022/12/29 07:50:28;;;;;;;20.00;7.93;;;;;;;;;;5151940;27;20118;-69
2022/12/29 07:52:53;;;;;;;20.13;8.32;;;;;;;;;;5152210;27;20563;-75
2022/12/29 07:55:19;;;;;;;21.45;8.25;;;;;;;;;;5151735;27;20611;-74
2022/12/29 07:57:44;;;;;;;20.15;8.05;;;;;;;;;;5154932;27;20027;-76
2022/12/29 08:00:10;;;;;;;17.05;7.93;;;;;;;;;;5154237;27;20064;-75
2022/12/29 08:02:36;;;;;;;15.30;7.72;;;;;;;;;;5152011;27;20033;-77
2022/12/29 08:05:02;;;;;;;20.15;8.07;;;;;;;;;;5151484;27;20023;-74
2022/12/29 08:07:27;;;;;;;15.32;7.55;;;;;;;;;;5151582;27;20626;-76
2022/12/29 08:09:53;;;;;;;16.85;7.57;;;;;;;;;;5151455;27;20022;-75
2022/12/29 08:12:18;;;;;;;18.38;8.15;;;;;;;;;;5155653;27;20566;-76
2022/12/29 08:14:44;;;;;;;19.35;7.72;;;;;;;;;;5155503;27;20438;-75
2022/12/29 08:17:09;;;;;;;16.33;7.85;;;;;;;;;;5155614;27;20041;-73
2022/12/29 08:19:35;;;;;;;21.02;8.25;;;;;;;;;;5155547;27;20033;-75
2022/12/29 08:22:01;;;;;;;19.42;7.40;;;;;;;;;;5155492;27;20401;-76
2022/12/29 08:24:26;;;;;;;19.70;7.55;;;;;;;;;;5155421;27;20026;-76
2022/12/29 08:26:52;;;;;;;16.73;8.18;;;;;;;;;;5155281;27;20586;-72
2022/12/29 08:29:17;;;;;;;20.08;7.20;;;;;;;;;;5155275;27;20478;-76
2022/12/29 08:31:43;;;;;;;18.73;7.72;;;;;;;;;;5155436;27;20438;-77
2022/12/29 08:34:08;;;;;;;20.05;7.53;;;;;;;;;;5155340;27;20023;-77
2022/12/29 08:36:34;;;;;;;16.02;7.25;;;;;;;;;;5155105;27;20046;-76
2022/12/29 08:38:59;;;;;;;24.00;7.65;;;;;;;;;;5154994;27;20026;-75
2022/12/29 08:41:24;;;;;;;20.80;7.93;;;;;;;;;;5154964;27;20062;-75
2022/12/29 08:43:50;;;;;;;15.50;7.40;;;;;;;;;;5154984;27;20046;-73
2022/12/29 08:46:16;;;;;;;17.95;7.30;;;;;;;;;;5153522;27;20082;-76
2022/12/29 08:48:41;;;;;;;14.48;7.15;;;;;;;;;;5155067;27;20114;-76
2022/12/29 08:51:07;;;;;;;20.58;6.55;;;;;;;;;;5155150;27;20156;-77
2022/12/29 08:53:33;;;;;;;17.65;6.80;;;;;;;;;;5154995;27;20431;-77
2022/12/29 08:56:00;;;;;;;22.35;7.35;;;;;;;;;;5154639;27;20027;-78
2022/12/29 08:58:26;;;;;;;19.05;6.68;;;;;;;;;;5154674;27;20026;-68
2022/12/29 09:00:56;;;;;;;14.07;6.80;;;;;;;;;;5154615;27;20023;-68
2022/12/29 09:03:23;;;;;;;16.70;6.88;;;;;;;;;;5154658;27;20072;-69
2022/12/29 09:05:53;;;;;;;20.75;6.85;;;;;;;;;;5153215;27;20033;-68
2022/12/29 09:08:19;;;;;;;16.95;6.93;;;;;;;;;;5154536;27;20022;-68
2022/12/29 09:10:45;;;;;;;15.48;7.05;;;;;;;;;;5154803;27;20027;-69
2022/12/29 09:13:12;;;;;;;16.70;6.97;;;;;;;;;;5154338;27;20071;-69
2022/12/29 09:15:38;;;;;;;19.08;6.82;;;;;;;;;;5154307;27;20026;-69
2022/12/29 09:18:04;;;;;;;19.85;7.30;;;;;;;;;;5154289;27;20538;-69
2022/12/29 09:20:30;;;;;;;23.75;6.93;;;;;;;;;;5154135;27;20098;-70
2022/12/29 09:22:55;;;;;;;19.75;6.35;;;;;;;;;;5154344;27;20098;-72
2022/12/29 09:25:24;;;;;;;15.60;6.93;;;;;;;;;;5153966;27;20026;-74
2022/12/29 09:27:52;;;;;;;20.15;6.40;;;;;;;;;;5154278;27;20135;-69
2022/12/29 09:30:17;;;;;;;18.80;6.53;;;;;;;;;;5154161;27;20110;-70
2022/12/29 09:32:43;;;;;;;17.92;6.53;;;;;;;;;;5153789;27;20118;-68
2022/12/29 09:35:08;;;;;;;16.33;6.28;;;;;;;;;;5153764;27;20071;-69
2022/12/29 09:37:34;;;;;;;17.92;6.35;;;;;;;;;;5154127;27;20487;-71
2022/12/29 09:39:59;;;;;;;15.93;6.40;;;;;;;;;;5154126;27;20054;-69
2022/12/29 09:42:53;;;;;;;16.70;6.43;;;;;;;;;;5154234;27;20069;-70
2022/12/29 09:45:25;;;;;;;14.43;5.93;;;;;;;;;;5153736;27;20035;-68
2022/12/29 09:47:51;;;;;;;16.98;5.60;;;;;;;;;;5153648;27;20061;-67
2022/12/29 09:50:30;;;;;;;12.25;5.78;;;;;;;;;;5153573;27;20066;-70
2022/12/29 09:53:13;;;;;;;19.63;6.13;;;;;;;;;;5153495;27;20378;-68
2022/12/29 09:55:42;;;;;;;16.77;5.78;;;;;;;;;;5153484;27;20488;-67
2022/12/29 09:58:19;;;;;;;13.02;6.20;;;;;;;;;;5152896;27;20105;-68
2022/12/29 10:00:53;;;;;;;18.00;5.70;;;;;;;;;;5153191;27;20382;-68
2022/12/29 10:03:20;;;;;;;15.75;5.50;;;;;;;;;;5152930;27;20026;-68
2022/12/29 10:05:53;;;;;;;17.02;5.68;;;;;;;;;;5151244;27;20434;-69
2022/12/29 10:08:48;;;;;;;13.82;5.78;;;;;;;;;;5153030;27;20478;-69
2022/12/29 10:11:26;;;;;;;15.15;5.50;;;;;;;;;;5153232;27;20029;-70
2022/12/29 10:13:57;;;;;;;20.00;5.82;;;;;;;;;;5153068;27;20461;-71
2022/12/29 10:16:25;;;;;;;19.42;6.13;;;;;;;;;;5153010;27;20026;-69
2022/12/29 10:18:59;;;;;;;16.85;5.97;;;;;;;;;;5152936;27;20470;-69
2022/12/29 10:21:55;;;;;;;14.07;4.90;;;;;;;;;;5152799;27;20101;-69
2022/12/29 10:24:21;;;;;;;15.00;5.18;;;;;;;;;;5153040;27;20394;-68
2022/12/29 10:26:50;;;;;;;13.80;5.07;;;;;;;;;;5152528;27;20033;-67
2022/12/29 10:29:19;;;;;;;16.05;5.47;;;;;;;;;;5152864;27;20378;-68
2022/12/29 10:31:50;;;;;;;16.25;5.47;;;;;;;;;;5152869;27;20022;-68
2022/12/29 10:34:27;;;;;;;16.50;5.05;;;;;;;;;;5152413;27;20026;-73
2022/12/29 10:37:02;;;;;;;15.68;5.47;;;;;;;;;;5153103;27;20060;-74
2022/12/29 10:39:39;;;;;;;14.50;5.28;;;;;;;;;;5152789;27;20023;-70
2022/12/29 10:42:37;;;;;;;14.93;4.88;;;;;;;;;;5152742;27;20022;-68
2022/12/29 10:45:04;;;;;;;20.50;4.90;;;;;;;;;;5139755;27;20566;-68
2022/12/29 10:47:34;;;;;;;10.30;4.50;;;;;;;;;;5152623;27;20081;-69
2022/12/29 10:50:01;;;;;;;13.60;4.80;;;;;;;;;;5152654;27;20030;-69
2022/12/29 10:52:28;;;;;;;15.60;4.80;;;;;;;;;;5152787;27;20505;-69
2022/12/29 10:55:19;;;;;;;10.20;4.53;;;;;;;;;;5152811;27;20039;-69
2022/12/29 10:57:45;;;;;;;12.95;4.85;;;;;;;;;;5144475;27;20109;-69
2022/12/29 11:00:20;;;;;;;12.27;4.45;;;;;;;;;;5152372;27;20026;-69
2022/12/29 11:03:16;;;;;;;16.38;4.95;;;;;;;;;;5152364;27;20023;-68
2022/12/29 11:05:59;;;;;;;14.25;4.75;;;;;;;;;;5152227;27;20019;-70
2022/12/29 11:08:27;;;;;;;13.75;4.68;;;;;;;;;;5152165;27;20037;-71
2022/12/29 11:11:02;;;;;;;14.15;4.60;;;;;;;;;;5152298;27;20026;-68
2022/12/29 11:13:30;;;;;;;11.65;4.68;;;;;;;;;;5151959;27;20047;-67
2022/12/29 11:15:56;;;;;;;10.63;4.63;;;;;;;;;;5151976;27;20023;-68
2022/12/29 11:18:36;;;;;;;10.65;4.82;;;;;;;;;;5151943;27;20061;-67
2022/12/29 11:21:06;;;;;;;11.00;4.63;;;;;;;;;;5152046;27;20113;-69
2022/12/29 11:23:40;;;;;;;17.58;4.90;;;;;;;;;;5152239;27;20045;-68
2022/12/29 11:26:05;;;;;;;13.38;4.45;;;;;;;;;;5152056;27;20152;-68
2022/12/29 11:28:33;;;;;;;18.08;5.07;;;;;;;;;;5152127;27;20109;-69
2022/12/29 11:31:03;;;;;;;11.27;4.40;;;;;;;;;;5152312;27;20107;-69
2022/12/29 11:33:29;;;;;;;10.85;4.90;;;;;;;;;;5151800;27;20063;-68
2022/12/29 11:36:05;;;;;;;14.68;4.50;;;;;;;;;;5151736;27;20038;-69
2022/12/29 11:38:36;;;;;;;14.25;4.82;;;;;;;;;;5152235;27;20035;-68
2022/12/29 11:41:03;;;;;;;10.98;4.50;;;;;;;;;;5150646;27;20374;-68
2022/12/29 11:43:36;;;;;;;12.15;4.35;;;;;;;;;;5151791;27;20531;-68
2022/12/29 11:46:03;;;;;;;11.98;4.07;;;;;;;;;;5155320;27;20031;-68
2022/12/29 11:48:37;;;;;;;15.57;4.28;;;;;;;;;;5155882;27;20033;-69
2022/12/29 11:51:03;;;;;;;10.43;4.30;;;;;;;;;;5156121;27;20035;-68
2022/12/29 11:53:38;;;;;;;12.50;4.70;;;;;;;;;;5155958;27;20097;-69
2022/12/29 11:56:07;;;;;;;13.13;4.18;;;;;;;;;;5155825;27;20027;-70
2022/12/29 11:58:36;;;;;;;12.57;3.88;;;;;;;;;;5154461;27;20405;-69
2022/12/29 12:01:23;;;;;;;9.32;3.75;;;;;;;;;;5156013;27;20046;-68
2022/12/29 12:04:11;;;;;;;12.02;4.57;;;;;;;;;;5155806;27;20470;-69
2022/12/29 12:06:45;;;;;;;14.85;4.18;;;;;;;;;;5145877;27;20509;-69
2022/12/29 12:09:18;;;;;;;14.38;4.65;;;;;;;;;;5155628;27;20549;-69
2022/12/29 12:11:45;;;;;;;10.90;4.10;;;;;;;;;;5155704;27;20030;-68
2022/12/29 12:14:46;;;;;;;9.48;3.92;;;;;;;;;;5154255;27;20537;-68
2022/12/29 12:17:17;;;;;;;;;;;;;;;;;;5156549;27;20063;-69
2022/12/29 12:19:46;;;;;;;;;;;;;;;;;;5156418;27;19956;-68
2022/12/29 12:22:37;;;;;;;10.40;3.90;;;;;;;;;;5156079;27;19945;-68
2022/12/29 12:25:25;;;;;;;17.13;4.47;;;;;;;;;;5155614;27;20054;-68
2022/12/29 12:27:55;;;;;;;9.45;4.53;;;;;;;;;;5155222;27;20382;-68
2022/12/29 12:30:22;;;;;;;16.13;4.75;;;;;;;;;;5155100;27;20031;-67
2022/12/29 12:33:03;;;;;;;11.00;4.05;;;;;;;;;;5155686;27;20381;-68
2022/12/29 12:35:34;;;;;;;13.05;3.97;;;;;;;;;;5155424;27;20114;-68
2022/12/29 12:38:09;;;;;;;;;;;;;;;;;;5155592;27;20054;-65
2022/12/29 12:40:43;;;;;;;10.73;3.92;;;;;;;;;;5155137;27;19907;-70
2022/12/29 12:43:35;;;;;;;11.65;4.43;;;;;;;;;;5153725;27;20103;-68
2022/12/29 12:46:03;;;;;;;12.05;3.97;;;;;;;;;;5154915;27;20544;-68
2022/12/29 12:49:01;;;;;;;13.55;4.28;;;;;;;;;;5154623;27;20092;-69
2022/12/29 12:51:36;;;;;;;13.65;4.20;;;;;;;;;;5133183;27;20494;-70
2022/12/29 12:54:05;;;;;;;10.93;4.28;;;;;;;;;;5155127;27;20466;-68
2022/12/29 12:56:55;;;;;;;10.80;4.38;;;;;;;;;;5154294;27;20023;-68
2022/12/29 12:59:50;;;;;;;10.52;4.07;;;;;;;;;;5154833;27;20042;-69
2022/12/29 13:02:18;;;;;;;13.15;3.97;;;;;;;;;;5154287;27;20037;-72
2022/12/29 13:05:09;;;;;;;12.45;4.60;;;;;;;;;;5154483;27;20162;-68
2022/12/29 13:08:03;;;;;;;9.05;4.07;;;;;;;;;;5154269;27;20086;-69
2022/12/29 13:10:34;;;;;;;9.68;3.80;;;;;;;;;;5154687;27;20022;-70
2022/12/29 13:13:36;;;;;;;13.00;4.13;;;;;;;;;;5154594;27;20023;-71
2022/12/29 13:16:14;;;;;;;11.25;4.40;;;;;;;;;;5154528;27;20050;-70
2022/12/29 13:19:05;;;;;;;12.55;4.70;;;;;;;;;;5154281;27;20029;-70
2022/12/29 13:21:53;;;;;;;12.05;4.20;;;;;;;;;;5145577;27;20038;-71
2022/12/29 13:24:23;;;;;;;10.63;4.20;;;;;;;;;;5145610;27;20430;-75
2022/12/29 13:26:53;;;;;;;15.45;4.50;;;;;;;;;;5158431;27;20549;-69
2022/12/29 13:29:21;;;;;;;12.30;4.22;;;;;;;;;;5169036;27;20462;-73
2022/12/29 13:32:03;;;;;;;13.32;4.35;;;;;;;;;;5166488;27;20362;-68
2022/12/29 13:34:47;;;;;;;11.30;4.50;;;;;;;;;;5158145;27;20030;-72
2022/12/29 13:37:17;;;;;;;9.23;4.00;;;;;;;;;;5152959;27;20079;-74
2022/12/29 13:39:51;;;;;;;11.20;4.03;;;;;;;;;;5154198;27;20596;-70
2022/12/29 13:42:19;;;;;;;11.25;4.38;;;;;;;;;;5153909;27;20030;-71
2022/12/29 13:44:49;;;;;;;9.75;4.50;;;;;;;;;;5153788;27;20043;-69
2022/12/29 13:47:30;;;;;;;14.55;4.50;;;;;;;;;;5153464;27;20118;-70
2022/12/29 13:49:58;;;;;;;12.57;4.18;;;;;;;;;;5154038;27;20599;-69
2022/12/29 13:52:51;;;;;;;13.02;4.00;;;;;;;;;;5153857;27;20057;-69
2022/12/29 13:55:34;;;;;;;13.18;4.10;;;;;;;;;;5153702;27;20030;-68
2022/12/29 13:58:11;;;;;;;12.30;3.90;;;;;;;;;;5153302;27;20050;-70
2022/12/29 14:01:00;;;;;;;11.80;4.35;;;;;;;;;;5153609;27;20071;-69
2022/12/29 14:03:47;;;;;;;13.23;3.92;;;;;;;;;;5153447;27;20023;-68
2022/12/29 14:06:19;;;;;;;13.10;4.65;;;;;;;;;;5153626;27;20022;-68
2022/12/29 14:08:46;;;;;;;10.23;4.20;;;;;;;;;;5152208;27;20061;-72
2022/12/29 14:11:16;;;;;;;9.75;4.25;;;;;;;;;;5153500;27;20474;-75
2022/12/29 14:13:44;;;;;;;10.20;4.20;;;;;;;;;;5153009;27;20022;-69
2022/12/29 14:16:34;;;;;;;12.45;4.25;;;;;;;;;;5153277;27;20065;-69
2022/12/29 14:19:13;;;;;;;9.98;4.28;;;;;;;;;;5153043;27;20062;-68
2022/12/29 14:21:40;;;;;;;10.02;4.40;;;;;;;;;;5153321;27;20043;-68
2022/12/29 14:24:36;;;;;;;11.57;4.75;;;;;;;;;;5153261;27;20033;-69
2022/12/29 14:27:11;;;;;;;10.82;4.28;;;;;;;;;;5151778;27;20031;-68
2022/12/29 14:29:39;;;;;;;11.13;3.90;;;;;;;;;;5153247;27;20022;-69
2022/12/29 14:32:26;;;;;;;12.55;4.13;;;;;;;;;;5152897;27;20026;-70
2022/12/29 14:34:59;;;;;;;11.10;4.10;;;;;;;;;;5152512;27;20026;-69
2022/12/29 14:37:29;;;;;;;13.10;4.40;;;;;;;;;;5151391;27;20034;-68
2022/12/29 14:40:19;;;;;;;13.93;4.20;;;;;;;;;;5153026;27;20030;-68
2022/12/29 14:42:48;;;;;;;10.43;4.28;;;;;;;;;;5152621;27;20037;-69
2022/12/29 14:45:14;;;;;;;11.20;4.55;;;;;;;;;;5152726;27;20080;-68
2022/12/29 14:47:42;;;;;;;11.77;4.60;;;;;;;;;;5152324;27;20042;-71
2022/12/29 14:50:11;;;;;;;14.63;4.50;;;;;;;;;;5152441;27;20030;-68
2022/12/29 14:52:56;;;;;;;15.10;4.53;;;;;;;;;;5152557;27;20034;-69
2022/12/29 14:55:38;;;;;;;13.18;4.80;;;;;;;;;;5152528;27;20449;-68
2022/12/29 14:58:06;;;;;;;17.58;4.80;;;;;;;;;;5152268;27;20050;-68
2022/12/29 15:00:36;;;;;;;16.48;5.18;;;;;;;;;;5152459;27;20029;-69
2022/12/29 15:03:12;;;;;;;14.07;4.50;;;;;;;;;;5152716;27;20071;-70
2022/12/29 15:05:43;;;;;;;18.23;5.07;;;;;;;;;;5152450;27;20490;-69
2022/12/29 15:08:10;;;;;;;10.25;4.45;;;;;;;;;;5152049;27;20072;-69
2022/12/29 15:10:45;;;;;;;12.60;4.90;;;;;;;;;;5152121;27;20078;-69
2022/12/29 15:13:22;;;;;;;13.05;5.15;;;;;;;;;;5152265;27;20050;-71
2022/12/29 15:15:48;;;;;;;12.90;4.63;;;;;;;;;;5152116;27;20462;-71
2022/12/29 15:18:14;;;;;;;16.60;5.05;;;;;;;;;;5151801;27;20031;-70
2022/12/29 15:20:41;;;;;;;14.70;5.13;;;;;;;;;;5152516;27;20023;-69
2022/12/29 15:23:14;;;;;;;16.15;5.25;;;;;;;;;;5152244;27;20105;-74
2022/12/29 15:25:52;;;;;;;15.55;5.03;;;;;;;;;;5152166;27;20071;-70